Time;durP1;ratioP1;P1;durP2;ratioP2;P2;SDS_P1;SDS_P2;PMS_P1;PMS_P2;Temp;Humidity;BMP_temperature;BMP_pressure;BME280_temperature;BME280_humidity;BME280_pressure;Samples;Min_cycle;Max_cycle;Signal;HPM_P1;HPM_P2
2021/12/17 00:01:06;;;;;;;;;50.50;37.25;;;;;10.70;63.01;103256.25;5033023;28;45167;-63
2021/12/17 00:03:48;;;;;;;;;56.00;43.50;;;;;10.66;63.49;103256.88;5033748;28;45227;-64
2021/12/17 00:08:54;;;;;;;;;54.00;39.75;;;;;10.63;63.14;103254.00;5033165;28;45144;-62
2021/12/17 00:11:21;;;;;;;;;54.75;38.00;;;;;10.64;63.64;103253.16;5033290;28;45129;-64
2021/12/17 00:13:47;;;;;;;;;55.50;42.75;;;;;10.44;63.31;103214.41;5031589;28;44935;-63
2021/12/17 00:16:19;;;;;;;;;50.25;43.00;;;;;10.24;63.31;103172.97;5031340;28;45662;-64
2021/12/17 00:19:01;;;;;;;;;48.50;35.00;;;;;10.66;63.59;103238.19;5030567;28;45180;-65
2021/12/17 00:48:39;;;;;;;;;44.75;37.50;;;;;10.43;64.38;103237.56;5031451;28;45159;-63
2021/12/17 00:54:07;;;;;;;;;54.25;39.50;;;;;10.36;65.13;103237.03;5030983;28;45142;-64
2021/12/17 00:56:34;;;;;;;;;47.00;38.75;;;;;10.36;64.59;103237.97;5032918;28;45067;-64
2021/12/17 00:58:59;;;;;;;;;57.25;45.00;;;;;10.36;65.16;103237.97;5032391;28;47250;-64
2021/12/17 01:01:25;;;;;;;;;51.75;39.00;;;;;10.34;65.13;103231.59;5032823;28;45094;-63
2021/12/17 01:03:52;;;;;;;;;46.25;36.00;;;;;10.33;64.70;103230.66;5033046;28;45159;-63
2021/12/17 01:06:17;;;;;;;;;45.75;36.00;;;;;10.36;64.98;103229.00;5010721;28;44990;-63
2021/12/17 01:08:43;;;;;;;;;57.75;42.25;;;;;10.33;65.12;103232.44;5010320;28;45499;-61
2021/12/17 01:11:09;;;;;;;;;56.25;42.00;;;;;10.24;65.30;103223.75;5009774;28;45311;-62
2021/12/17 01:13:36;;;;;;;;;52.00;40.75;;;;;10.30;64.86;103233.09;5010220;28;45348;-63
2021/12/17 01:16:02;;;;;;;;;37.25;30.25;;;;;10.30;64.78;103226.84;5007881;28;45160;-64
2021/12/17 01:18:41;;;;;;;;;43.25;36.25;;;;;10.24;65.07;103224.66;5006115;28;46304;-64
2021/12/17 01:21:26;;;;;;;;;44.75;36.50;;;;;10.25;65.13;103229.19;5010406;28;45180;-63
2021/12/17 01:40:45;;;;;;;;;53.00;39.00;;;;;10.08;64.96;103224.44;5031787;28;45159;-64
2021/12/17 01:42:33;;;;;;;;;50.75;35.00;;;;;10.05;65.31;103208.22;5032834;28;44982;-62
2021/12/17 01:44:58;;;;;;;;;42.50;35.50;;;;;10.12;64.72;103232.78;5033041;28;45135;-63
2021/12/17 01:47:24;;;;;;;;;38.75;33.00;;;;;9.85;64.90;103177.47;5033314;28;45166;-64
2021/12/17 02:00:43;;;;;;;;;34.75;30.75;;;;;10.11;64.49;103214.91;5031704;28;45460;-62
2021/12/17 02:03:11;;;;;;;;;42.25;36.00;;;;;10.15;64.75;103222.28;5031633;28;44921;-63
2021/12/17 02:05:38;;;;;;;;;44.00;36.00;;;;;10.14;64.91;103219.53;5031820;28;45143;-63
2021/12/17 02:08:04;;;;;;;;;43.25;32.50;;;;;10.08;64.81;103219.09;5031983;28;45021;-61
2021/12/17 02:32:13;;;;;;;;;37.00;33.00;;;;;10.05;64.28;103230.50;5031446;28;45208;-62
2021/12/17 02:37:11;;;;;;;;;47.50;36.00;;;;;10.04;64.42;103222.38;5031408;28;45332;-63
2021/12/17 02:42:49;;;;;;;;;40.75;33.25;;;;;9.85;64.26;103196.16;5029571;28;45493;-64
2021/12/17 02:48:07;;;;;;;;;43.25;36.25;;;;;9.82;64.56;103190.63;5010758;28;45195;-62
2021/12/17 02:50:35;;;;;;;;;44.50;36.50;;;;;9.94;63.83;103207.47;5014525;28;45115;-63
2021/12/17 02:53:02;;;;;;;;;46.00;36.25;;;;;9.85;64.27;103194.44;5014554;28;45233;-63
2021/12/17 02:55:30;;;;;;;;;42.75;32.50;;;;;9.90;64.23;103211.69;5011557;28;45518;-64
2021/12/17 02:57:57;;;;;;;;;34.50;27.25;;;;;9.90;64.32;103205.41;5012661;28;45279;-62
2021/12/17 03:00:22;;;;;;;;;43.50;35.00;;;;;9.88;64.37;103210.66;5021826;28;44972;-63
2021/12/17 03:02:49;;;;;;;;;39.00;35.00;;;;;9.84;64.50;103208.59;5034301;28;45314;-65
2021/12/17 03:05:15;;;;;;;;;42.00;34.25;;;;;9.76;64.84;103188.44;5034246;28;45188;-63
2021/12/17 03:07:44;;;;;;;;;36.25;34.00;;;;;9.80;64.49;103198.53;5032256;28;45119;-63
2021/12/17 03:10:12;;;;;;;;;46.25;31.75;;;;;9.83;64.09;103195.13;5035544;28;45078;-63
2021/12/17 03:12:44;;;;;;;;;41.50;31.00;;;;;9.83;63.78;103205.81;5034183;28;45073;-65
2021/12/17 03:23:39;;;;;;;;;32.25;29.75;;;;;9.81;64.02;103196.78;5032107;28;45357;-63
2021/12/17 03:26:25;;;;;;;;;45.25;34.00;;;;;9.77;64.72;103183.22;5032185;28;44994;-63
2021/12/17 03:28:54;;;;;;;;;36.25;32.75;;;;;9.79;63.89;103196.69;5048232;28;44959;-63
2021/12/17 03:31:21;;;;;;;;;38.00;32.25;;;;;9.74;64.51;103191.00;5032003;28;44977;-62
2021/12/17 03:33:49;;;;;;;;;38.25;32.50;;;;;9.73;64.75;103190.91;5019578;28;45734;-62
2021/12/17 03:36:18;;;;;;;;;53.25;36.25;;;;;9.72;64.54;103190.00;5019912;28;45339;-62
2021/12/17 03:38:46;;;;;;;;;41.25;33.00;;;;;9.70;64.05;103193.34;5018328;28;45400;-63
2021/12/17 03:41:19;;;;;;;;;39.00;33.25;;;;;9.70;64.81;103204.97;5035012;28;45265;-63
2021/12/17 03:43:47;;;;;;;;;42.75;32.75;;;;;9.72;64.54;103214.00;5034375;28;45786;-64
2021/12/17 03:46:13;;;;;;;;;47.50;36.00;;;;;9.69;64.85;103203.13;5034426;28;45008;-62
2021/12/17 03:48:39;;;;;;;;;37.50;30.00;;;;;9.69;63.96;103207.53;5032077;28;45048;-63
2021/12/17 03:51:11;;;;;;;;;37.50;35.75;;;;;9.71;64.50;103204.13;5017146;28;45576;-63
2021/12/17 03:53:37;;;;;;;;;46.50;36.25;;;;;9.71;64.30;103206.81;5025288;28;47199;-62
2021/12/17 03:56:02;;;;;;;;;41.50;33.75;;;;;9.74;64.02;103211.44;5033856;28;45220;-62
2021/12/17 03:58:27;;;;;;;;;45.25;35.50;;;;;9.73;64.38;103207.88;5033233;28;45128;-64
2021/12/17 04:00:53;;;;;;;;;39.75;34.75;;;;;9.74;63.88;103206.13;5032706;28;44992;-64
2021/12/17 04:03:18;;;;;;;;;38.75;34.25;;;;;9.64;64.42;103185.88;5031469;28;45282;-63
2021/12/17 04:05:44;;;;;;;;;48.50;35.00;;;;;9.62;63.95;103179.50;5031451;28;45013;-63
2021/12/17 04:08:09;;;;;;;;;38.50;34.75;;;;;9.71;64.36;103204.13;5031102;28;45166;-63
2021/12/17 04:10:42;;;;;;;;;44.50;35.25;;;;;9.70;64.46;103201.38;5031505;28;45116;-63
2021/12/17 04:13:25;;;;;;;;;32.75;30.00;;;;;9.81;64.43;103210.13;5031481;28;45295;-62
2021/12/17 04:16:01;;;;;;;;;44.75;35.00;;;;;9.68;64.43;103171.91;5031121;28;45030;-61
2021/12/17 04:18:27;;;;;;;;;45.00;34.50;;;;;9.82;64.08;103195.97;5031859;28;44919;-62
2021/12/17 04:20:53;;;;;;;;;47.25;37.00;;;;;9.68;63.72;103169.22;5031251;28;45301;-63
2021/12/17 04:23:20;;;;;;;;;38.50;33.50;;;;;9.86;64.20;103200.69;5028538;28;45928;-64
2021/12/17 04:25:46;;;;;;;;;37.75;34.00;;;;;9.85;63.73;103194.44;5030503;28;45072;-64
2021/12/17 04:28:11;;;;;;;;;43.25;34.75;;;;;9.85;64.28;103189.09;5030566;28;45033;-64
2021/12/17 04:30:38;;;;;;;;;47.00;36.75;;;;;9.85;64.47;103190.81;5031935;28;45346;-65
2021/12/17 04:33:03;;;;;;;;;48.00;36.00;;;;;9.87;64.09;103192.78;5030955;28;46006;-65
2021/12/17 04:35:29;;;;;;;;;36.75;32.50;;;;;9.88;64.32;103194.66;5029948;28;44910;-65
2021/12/17 04:37:54;;;;;;;;;38.75;34.00;;;;;9.79;64.39;103180.66;5045565;28;45038;-64
2021/12/17 04:40:22;;;;;;;;;38.50;33.00;;;;;9.82;64.41;103191.56;5030974;28;45219;-63
2021/12/17 04:45:36;;;;;;;;;39.25;32.75;;;;;9.84;64.24;103187.22;5029934;28;45014;-64
2021/12/17 04:59:06;;;;;;;;;38.50;29.00;;;;;10.00;63.99;103191.88;5030375;28;44958;-63
2021/12/17 05:01:34;;;;;;;;;37.50;30.00;;;;;10.02;64.05;103182.22;5031453;28;45146;-64
2021/12/17 05:04:00;;;;;;;;;39.75;34.00;;;;;10.07;64.11;103187.88;5030408;28;45532;-63
2021/12/17 05:06:29;;;;;;;;;49.50;35.00;;;;;10.12;63.95;103192.69;5032529;28;45213;-64
2021/12/17 05:08:59;;;;;;;;;44.50;36.50;;;;;10.11;64.20;103171.22;5032280;28;45014;-62
2021/12/17 05:11:48;;;;;;;;;40.75;33.50;;;;;10.21;63.61;103181.69;5031692;28;45132;-63
2021/12/17 05:19:51;;;;;;;;;37.25;28.50;;;;;10.17;64.05;103198.34;5009986;28;45212;-64
2021/12/17 05:22:18;;;;;;;;;48.00;33.50;;;;;10.05;64.28;103168.16;5028887;28;45257;-63
2021/12/17 05:24:43;;;;;;;;;36.25;30.00;;;;;10.20;64.61;103190.56;5029442;28;45337;-62
2021/12/17 05:27:09;;;;;;;;;33.25;29.00;;;;;10.14;64.42;103183.03;5030664;28;45263;-63
2021/12/17 05:29:34;;;;;;;;;38.75;30.50;;;;;10.27;64.26;103189.22;5030876;28;45346;-64
2021/12/17 05:32:00;;;;;;;;;40.25;32.50;;;;;10.26;64.01;103177.63;5029192;28;45247;-64
2021/12/17 05:34:25;;;;;;;;;45.25;31.75;;;;;10.27;63.91;103181.22;5031210;28;45243;-65
2021/12/17 05:36:50;;;;;;;;;39.50;31.00;;;;;10.30;64.46;103181.41;5032726;28;45282;-63
2021/12/17 05:39:16;;;;;;;;;41.25;34.00;;;;;10.33;64.25;103184.31;5032958;28;48822;-63
2021/12/17 05:41:41;;;;;;;;;40.75;33.00;;;;;10.37;64.67;103175.69;5032998;28;44996;-63
2021/12/17 05:44:07;;;;;;;;;42.25;33.50;;;;;10.30;64.49;103166.28;5032769;28;45776;-64
2021/12/17 05:46:49;;;;;;;;;38.00;31.50;;;;;10.40;64.37;103172.28;5032709;28;45098;-63
2021/12/17 05:49:16;;;;;;;;;33.25;25.25;;;;;10.37;64.43;103173.00;5032542;28;44903;-65
2021/12/17 05:51:41;;;;;;;;;34.75;27.00;;;;;10.38;64.82;103176.59;5032325;28;45128;-64
2021/12/17 05:54:07;;;;;;;;;39.00;29.75;;;;;10.35;64.78;103163.97;5032171;28;45552;-63
2021/12/17 05:56:32;;;;;;;;;32.00;29.75;;;;;10.45;64.84;103186.88;5032284;28;45022;-63
2021/12/17 05:58:58;;;;;;;;;36.75;33.00;;;;;10.45;64.46;103179.78;5032431;28;45023;-64
2021/12/17 06:01:23;;;;;;;;;46.00;34.75;;;;;10.48;64.73;103179.06;5030775;28;45187;-64
2021/12/17 06:03:49;;;;;;;;;31.00;28.75;;;;;10.39;64.71;103155.31;5031708;28;45533;-64
2021/12/17 06:06:33;;;;;;;;;36.25;28.75;;;;;10.54;64.66;103181.22;5032004;28;45140;-63
2021/12/17 06:09:05;;;;;;;;;30.25;24.75;;;;;10.56;64.35;103177.81;5031956;28;45154;-64
2021/12/17 06:11:30;;;;;;;;;41.50;33.00;;;;;10.56;64.70;103167.13;5031366;28;45082;-62
2021/12/17 06:13:56;;;;;;;;;33.50;30.25;;;;;10.57;64.98;103168.97;5031896;28;45266;-63
2021/12/17 06:16:21;;;;;;;;;34.25;32.75;;;;;10.59;64.67;103166.41;5031728;28;45267;-64
2021/12/17 06:18:46;;;;;;;;;35.75;30.25;;;;;10.41;64.46;103148.34;5032136;28;45112;-63
2021/12/17 06:21:12;;;;;;;;;35.75;32.75;;;;;10.56;64.51;103167.13;5031658;28;45136;-64
2021/12/17 06:23:37;;;;;;;;;32.75;27.75;;;;;10.57;64.65;103170.72;5031895;28;45110;-64
2021/12/17 06:26:04;;;;;;;;;33.50;29.75;;;;;10.50;64.77;103166.72;5031378;28;45120;-64
2021/12/17 06:28:29;;;;;;;;;37.00;31.50;;;;;10.57;65.01;103170.72;5031429;28;45063;-65
2021/12/17 06:30:55;;;;;;;;;41.75;35.25;;;;;10.60;65.64;103173.59;5031292;28;45045;-64
2021/12/17 06:33:20;;;;;;;;;38.75;32.50;;;;;10.58;65.36;103194.88;5030940;28;45564;-66
2021/12/17 06:35:45;;;;;;;;;38.50;32.75;;;;;10.53;65.75;103161.59;5029707;28;45142;-64
2021/12/17 06:38:11;;;;;;;;;31.75;28.25;;;;;10.59;65.48;103170.00;5020879;28;45280;-64
2021/12/17 06:40:36;;;;;;;;;30.50;29.75;;;;;10.51;65.41;103152.56;5016974;28;45444;-64
2021/12/17 06:43:02;;;;;;;;;35.00;27.75;;;;;10.69;65.54;103179.53;5018442;28;45732;-65
2021/12/17 06:48:26;;;;;;;;;34.25;30.50;;;;;10.72;65.65;103179.72;5018408;28;45430;-64
2021/12/17 07:11:56;;;;;;;;;31.00;26.00;;;;;10.46;66.39;103146.91;5028881;28;45008;-64
2021/12/17 07:22:04;;;;;;;;;32.50;27.50;;;;;10.59;66.00;103151.31;5028378;28;45198;-64
2021/12/17 07:32:46;;;;;;;;;27.00;23.25;;;;;10.72;66.04;103198.44;5012399;28;45383;-62
2021/12/17 07:38:37;;;;;;;;;29.75;27.25;;;;;10.75;66.35;103198.66;5008305;28;45253;-62
2021/12/17 07:40:34;;;;;;;;;23.75;20.25;;;;;10.79;66.46;103205.13;5010118;28;46065;-64
2021/12/17 07:43:02;;;;;;;;;28.25;24.75;;;;;10.79;66.35;103195.38;4996630;28;45420;-65
2021/12/17 07:45:28;;;;;;;;;30.50;25.00;;;;;10.81;66.60;103199.06;4999299;28;46333;-64
2021/12/17 07:47:54;;;;;;;;;38.25;27.25;;;;;10.82;66.04;103205.31;4996982;28;45647;-64
2021/12/17 07:50:19;;;;;;;;;33.75;27.25;;;;;10.75;66.45;103192.38;4996419;28;45515;-67
2021/12/17 07:52:45;;;;;;;;;30.75;25.75;;;;;10.77;65.95;103204.09;4996617;28;45464;-64
2021/12/17 07:55:11;;;;;;;;;35.00;28.75;;;;;10.82;66.63;103203.59;5010985;28;46280;-63
2021/12/17 07:57:36;;;;;;;;;31.50;22.25;;;;;10.41;66.47;103121.63;4996003;28;45478;-64
2021/12/17 08:00:03;;;;;;;;;31.75;26.50;;;;;10.77;67.04;103180.03;4996103;28;45430;-65
2021/12/17 08:02:28;;;;;;;;;27.50;23.50;;;;;10.90;66.63;103204.06;4996220;28;45302;-64
2021/12/17 08:04:54;;;;;;;;;33.25;27.75;;;;;10.89;66.15;103188.88;4995543;28;46135;-63
2021/12/17 08:07:19;;;;;;;;;30.75;23.75;;;;;10.97;66.02;103200.03;4995914;28;45417;-64
2021/12/17 08:09:45;;;;;;;;;29.25;23.50;;;;;10.87;65.94;103175.38;4996148;28;45325;-64
2021/12/17 08:12:10;;;;;;;;;31.00;26.00;;;;;10.98;66.24;103186.75;4996314;28;45482;-64
2021/12/17 08:14:36;;;;;;;;;22.00;19.75;;;;;11.01;65.95;103186.97;4995461;28;45957;-64
2021/12/17 08:17:27;;;;;;;;;24.75;23.00;;;;;10.91;66.37;103171.16;4995686;28;45445;-63
2021/12/17 08:25:18;;;;;;;;;37.50;28.25;;;;;11.06;66.37;103203.31;4996127;28;46105;-66
2021/12/17 08:28:03;;;;;;;;;25.50;21.25;;;;;11.01;65.92;103199.41;4995724;28;45428;-64
2021/12/17 08:30:37;;;;;;;;;23.25;21.75;;;;;10.93;66.54;103184.63;4995660;28;45469;-65
2021/12/17 08:33:05;;;;;;;;;31.25;27.00;;;;;11.04;66.29;103211.22;4995699;28;45545;-64
2021/12/17 08:35:30;;;;;;;;;24.50;23.25;;;;;11.06;66.67;103217.59;4995303;28;46023;-65
2021/12/17 08:37:55;;;;;;;;;31.50;25.50;;;;;11.07;66.51;103208.75;4995337;28;45427;-64
2021/12/17 08:40:26;;;;;;;;;31.50;27.50;;;;;11.02;66.69;103204.88;4995499;28;45397;-65
2021/12/17 08:42:51;;;;;;;;;51.75;36.25;;;;;11.11;66.27;103223.25;4995774;28;45389;-64
2021/12/17 08:45:17;;;;;;;;;33.50;24.00;;;;;11.10;66.43;103202.66;4995229;28;45431;-65
2021/12/17 08:47:43;;;;;;;;;31.00;24.50;;;;;11.14;66.90;103203.81;4994425;28;45514;-65
2021/12/17 08:50:11;;;;;;;;;32.50;25.25;;;;;11.06;66.06;103184.59;4995495;28;45468;-65
2021/12/17 08:52:36;;;;;;;;;29.75;23.75;;;;;11.03;66.70;103187.97;4995717;28;45456;-65
2021/12/17 08:55:04;;;;;;;;;35.25;27.25;;;;;11.08;66.74;103193.63;4995217;28;46100;-64
2021/12/17 08:57:29;;;;;;;;;27.00;24.25;;;;;11.05;66.60;103202.41;4995454;28;45534;-65
2021/12/17 08:59:57;;;;;;;;;30.75;24.50;;;;;11.04;66.42;103204.97;4995369;28;45438;-65
2021/12/17 09:02:23;;;;;;;;;31.25;26.25;;;;;11.04;66.74;103205.88;4995911;28;45485;-65
2021/12/17 09:04:48;;;;;;;;;31.25;26.75;;;;;11.06;66.39;103206.00;4995214;28;45465;-63
2021/12/17 09:07:14;;;;;;;;;37.25;24.75;;;;;11.04;66.24;103207.66;4995238;28;45487;-65
2021/12/17 09:09:40;;;;;;;;;32.25;28.25;;;;;11.09;66.56;103219.56;4995462;28;45336;-64
2021/12/17 09:12:06;;;;;;;;;38.50;26.50;;;;;10.98;66.66;103197.47;5011003;28;45757;-64
2021/12/17 09:14:32;;;;;;;;;31.75;23.50;;;;;11.10;66.24;103221.38;4994960;28;45488;-64
2021/12/17 09:16:58;;;;;;;;;33.50;27.50;;;;;11.11;66.99;103223.25;4995155;28;45302;-64
2021/12/17 09:19:23;;;;;;;;;29.50;27.50;;;;;11.07;66.46;103227.50;4995142;28;45538;-65
2021/12/17 09:21:49;;;;;;;;;25.75;22.75;;;;;11.11;66.37;103231.28;4995356;28;45543;-65
2021/12/17 09:24:14;;;;;;;;;32.00;27.00;;;;;10.98;66.22;103204.56;4995133;28;45883;-64
2021/12/17 09:26:40;;;;;;;;;42.50;35.25;;;;;11.15;67.07;103225.31;4994791;28;45317;-63
2021/12/17 09:29:05;;;;;;;;;30.50;26.75;;;;;11.17;66.43;103234.34;4994478;28;45503;-63
2021/12/17 09:31:31;;;;;;;;;33.50;25.00;;;;;11.17;66.52;103231.69;4995285;28;45470;-64
2021/12/17 09:33:56;;;;;;;;;28.50;25.50;;;;;11.19;66.77;103232.69;4995048;28;45992;-64
2021/12/17 09:36:22;;;;;;;;;36.00;30.00;;;;;11.24;66.04;103236.59;4994578;28;45717;-65
2021/12/17 09:38:49;;;;;;;;;29.25;27.50;;;;;11.10;66.84;103218.72;4994936;28;45537;-64
2021/12/17 09:41:16;;;;;;;;;33.75;31.50;;;;;11.10;66.26;103216.03;4995542;28;45457;-65
2021/12/17 09:43:42;;;;;;;;;32.75;30.75;;;;;11.24;66.21;103244.63;4994474;28;46400;-63
2021/12/17 09:46:08;;;;;;;;;26.25;25.75;;;;;11.27;66.27;103253.66;4994617;28;45430;-65
2021/12/17 09:48:35;;;;;;;;;39.75;35.00;;;;;11.27;66.60;103245.63;4994798;28;45332;-62
2021/12/17 09:51:03;;;;;;;;;34.25;23.25;;;;;11.33;66.31;103257.66;4994810;28;45417;-65
2021/12/17 09:53:28;;;;;;;;;33.50;29.25;;;;;11.33;66.34;103254.06;4993772;28;46904;-64
2021/12/17 09:55:54;;;;;;;;;33.25;28.00;;;;;11.38;66.66;103257.94;4994084;28;45283;-64
2021/12/17 09:58:19;;;;;;;;;38.50;31.00;;;;;11.38;66.44;103257.94;4993988;28;45419;-64
2021/12/17 10:00:44;;;;;;;;;39.75;32.50;;;;;11.39;66.17;103260.72;4994606;28;45347;-64
2021/12/17 10:03:10;;;;;;;;;36.25;31.25;;;;;11.42;66.11;103262.69;4993566;28;45477;-65
2021/12/17 10:05:38;;;;;;;;;48.00;35.50;;;;;11.39;66.10;103249.09;4993961;28;45545;-64
2021/12/17 10:08:11;;;;;;;;;33.25;30.00;;;;;11.48;66.08;103265.72;4994252;28;45296;-65
2021/12/17 10:10:40;;;;;;;;;37.00;32.25;;;;;11.49;65.95;103269.34;4994353;28;45402;-63
2021/12/17 10:13:10;;;;;;;;;29.50;27.50;;;;;11.48;65.46;103254.09;4994002;28;45378;-63
2021/12/17 10:15:38;;;;;;;;;36.25;29.50;;;;;11.50;65.46;103256.06;4993946;28;45522;-63
2021/12/17 10:18:03;;;;;;;;;37.25;32.50;;;;;11.50;65.99;103249.75;4993997;28;45479;-63
2021/12/17 10:20:35;;;;;;;;;37.75;31.00;;;;;11.56;65.71;103256.41;4994080;28;45375;-63
2021/12/17 10:23:07;;;;;;;;;32.00;28.25;;;;;11.55;66.24;103243.88;4993921;28;46187;-65
2021/12/17 10:25:35;;;;;;;;;38.00;26.75;;;;;11.59;65.99;103239.63;4993990;28;45691;-64
2021/12/17 10:28:05;;;;;;;;;34.50;31.00;;;;;11.61;65.24;103230.88;4993949;28;45478;-63
2021/12/17 10:30:34;;;;;;;;;37.25;31.50;;;;;11.50;65.15;103221.25;4994223;28;45658;-62
2021/12/17 10:33:02;;;;;;;;;44.00;33.00;;;;;11.61;65.29;103233.56;4993708;28;45358;-64
2021/12/17 10:35:33;;;;;;;;;37.25;28.25;;;;;11.61;65.61;103230.88;4993868;28;45397;-63
2021/12/17 10:38:02;;;;;;;;;35.75;28.50;;;;;11.59;65.76;103226.25;4993644;28;45486;-65
2021/12/17 10:40:36;;;;;;;;;33.50;31.25;;;;;11.57;65.18;103234.19;4994049;28;45332;-64
2021/12/17 10:43:10;;;;;;;;;44.25;33.00;;;;;11.58;65.56;103221.72;4993548;28;45821;-65
2021/12/17 10:45:41;;;;;;;;;36.00;29.00;;;;;11.59;65.64;103212.84;5008629;28;45493;-63
2021/12/17 10:48:22;;;;;;;;;36.75;29.25;;;;;11.58;65.12;103209.28;4993753;28;45399;-65
2021/12/17 10:50:50;;;;;;;;;30.75;25.50;;;;;11.61;65.32;103216.56;4993524;28;45443;-64
2021/12/17 10:53:16;;;;;;;;;28.50;26.50;;;;;11.15;64.89;103123.66;4993125;28;46315;-65
2021/12/17 10:55:46;;;;;;;;;30.00;25.00;;;;;11.60;64.93;103214.72;4993468;28;45473;-65
2021/12/17 10:58:12;;;;;;;;;44.00;32.50;;;;;11.56;65.35;103205.53;4993471;28;45367;-65
2021/12/17 11:00:50;;;;;;;;;37.00;33.25;;;;;11.57;65.50;103195.78;4993265;28;45500;-65
2021/12/17 11:03:15;;;;;;;;;35.75;27.25;;;;;11.59;65.18;103197.72;4993149;28;46121;-66
2021/12/17 11:05:41;;;;;;;;;31.75;29.25;;;;;11.53;65.36;103170.59;4992977;28;45471;-65
2021/12/17 11:08:28;;;;;;;;;43.00;34.50;;;;;11.62;64.65;103173.81;4993582;28;45546;-63
2021/12/17 11:10:58;;;;;;;;;40.75;32.50;;;;;11.64;64.74;103167.63;4996645;28;45521;-66
2021/12/17 11:13:25;;;;;;;;;39.25;34.00;;;;;11.67;64.25;103165.16;5011703;28;46015;-65
2021/12/17 11:15:52;;;;;;;;;40.00;31.00;;;;;11.70;64.77;103179.63;4996665;28;45343;-65
2021/12/17 11:18:18;;;;;;;;;40.50;31.75;;;;;11.70;64.74;103162.66;4996074;28;45779;-64
2021/12/17 11:20:44;;;;;;;;;36.75;33.50;;;;;11.76;64.17;103176.38;4996323;28;45418;-64
2021/12/17 11:23:13;;;;;;;;;37.00;31.50;;;;;11.76;64.59;103171.97;4996075;28;46107;-63
2021/12/17 11:25:43;;;;;;;;;34.75;30.50;;;;;11.80;64.01;103170.41;4995966;28;45326;-64
2021/12/17 11:28:10;;;;;;;;;35.75;31.00;;;;;11.62;64.09;103117.56;4995740;28;45401;-62
2021/12/17 11:30:38;;;;;;;;;34.75;31.50;;;;;11.84;64.30;103144.72;4996074;28;45468;-62
2021/12/17 11:33:04;;;;;;;;;41.00;34.50;;;;;11.88;63.47;103147.69;4995770;28;46316;-65
2021/12/17 11:35:34;;;;;;;;;52.50;40.75;;;;;11.94;64.30;103141.78;4995443;28;45544;-65
2021/12/17 11:38:05;;;;;;;;;38.75;32.50;;;;;11.98;62.57;103143.84;4995678;28;45444;-63
2021/12/17 11:40:44;;;;;;;;;48.75;38.25;;;;;11.88;62.39;103122.63;4995966;28;45415;-63
2021/12/17 11:43:18;;;;;;;;;44.75;36.50;;;;;12.01;62.46;103140.41;4995495;28;45509;-67
2021/12/17 11:45:45;;;;;;;;;44.50;38.00;;;;;12.05;63.14;103137.06;4995837;28;45566;-63
2021/12/17 11:48:17;;;;;;;;;38.25;32.00;;;;;11.93;62.26;103102.47;4996417;28;45516;-67
2021/12/17 11:50:44;;;;;;;;;31.50;25.00;;;;;12.06;61.88;103131.81;4996087;28;45426;-64
2021/12/17 11:53:23;;;;;;;;;33.75;31.25;;;;;12.05;62.05;103126.38;4995706;28;45460;-65
2021/12/17 11:56:00;;;;;;;;;40.25;35.50;;;;;12.10;62.20;103128.47;4995538;28;45350;-66
2021/12/17 11:58:50;;;;;;;;;30.75;27.50;;;;;12.16;62.49;103128.81;4995703;28;45261;-63
2021/12/17 12:01:51;;;;;;;;;34.50;30.50;;;;;12.18;61.37;103115.53;4996099;28;45671;-65
2021/12/17 12:04:24;;;;;;;;;41.75;33.75;;;;;12.21;61.27;103122.78;4995466;28;46033;-65
2021/12/17 12:07:08;;;;;;;;;36.00;32.00;;;;;12.19;60.71;103113.75;4995157;28;45662;-67
2021/12/17 12:10:00;;;;;;;;;33.75;26.00;;;;;12.14;60.23;103126.88;4995615;28;45414;-64
2021/12/17 12:12:34;;;;;;;;;46.50;35.00;;;;;12.16;60.90;103112.75;4996212;28;45389;-66
2021/12/17 12:15:28;;;;;;;;;33.75;31.50;;;;;12.20;61.13;103110.25;4995478;28;45910;-64
2021/12/17 12:18:03;;;;;;;;;34.25;30.00;;;;;12.25;60.02;103103.41;4995110;28;45547;-64
2021/12/17 12:20:38;;;;;;;;;32.00;28.00;;;;;12.23;60.28;103116.69;4994530;28;45409;-65
2021/12/17 12:23:15;;;;;;;;;33.75;31.50;;;;;12.07;59.80;103073.78;4994968;28;45432;-67
2021/12/17 12:25:41;;;;;;;;;31.75;27.25;;;;;12.26;58.95;103099.84;4994252;28;45487;-66
2021/12/17 12:28:06;;;;;;;;;40.25;29.75;;;;;12.23;59.56;103102.38;4994082;28;45456;-62
2021/12/17 12:30:38;;;;;;;;;36.25;32.00;;;;;12.10;58.73;103092.72;4994213;28;45506;-64
2021/12/17 12:33:08;;;;;;;;;28.00;26.75;;;;;12.16;59.53;103087.72;4994903;28;45380;-64
2021/12/17 12:35:34;;;;;;;;;38.00;29.75;;;;;12.19;58.96;103090.53;4993764;28;45461;-67
2021/12/17 12:38:17;;;;;;;;;30.50;30.25;;;;;12.23;59.15;103092.59;4993600;28;45296;-65
2021/12/17 12:40:51;;;;;;;;;31.50;25.25;;;;;12.26;58.06;103094.50;4993901;28;45313;-64
2021/12/17 12:43:25;;;;;;;;;31.25;22.75;;;;;12.26;58.11;103092.75;4994462;28;45335;-64
2021/12/17 12:45:51;;;;;;;;;31.00;27.50;;;;;12.25;58.29;103085.53;4993708;28;45347;-65
2021/12/17 12:48:30;;;;;;;;;29.50;27.50;;;;;12.06;58.56;103069.25;4992322;28;45446;-66
2021/12/17 12:51:16;;;;;;;;;32.00;25.75;;;;;12.12;58.39;103083.91;4994310;28;45599;-64
2021/12/17 12:54:06;;;;;;;;;33.25;29.75;;;;;12.17;57.94;103078.81;4994506;28;45348;-65
2021/12/17 12:56:32;;;;;;;;;29.50;25.00;;;;;11.54;57.88;102962.69;4993996;28;45588;-63
2021/12/17 12:58:58;;;;;;;;;38.25;30.00;;;;;12.14;59.28;103057.19;4994176;28;45280;-64
2021/12/17 13:01:23;;;;;;;;;39.75;28.25;;;;;12.14;58.52;103074.22;4994103;28;45391;-63
2021/12/17 13:03:49;;;;;;;;;36.00;26.50;;;;;12.06;58.55;103061.19;4994495;28;45654;-64
2021/12/17 13:06:17;;;;;;;;;30.00;28.25;;;;;12.21;58.77;103078.19;4993205;28;45844;-64
2021/12/17 13:08:44;;;;;;;;;25.00;20.00;;;;;12.25;57.73;103066.78;4993730;28;45557;-63
2021/12/17 13:11:09;;;;;;;;;21.25;20.25;;;;;12.23;57.92;103055.06;4993513;28;45497;-65
2021/12/17 13:13:57;;;;;;;;;24.25;20.75;;;;;12.28;57.47;103064.28;4996249;28;45399;-64
2021/12/17 13:21:45;;;;;;;;;30.25;22.25;;;;;12.22;57.19;103060.34;5016441;28;45464;-65
2021/12/17 13:24:20;;;;;;;;;33.25;28.75;;;;;12.16;57.35;103064.50;5019534;28;45556;-64
2021/12/17 13:26:52;;;;;;;;;34.00;26.75;;;;;12.15;58.30;103064.41;5021160;28;45397;-65
2021/12/17 13:29:21;;;;;;;;;26.00;23.75;;;;;12.15;57.58;103064.41;5022466;28;45621;-63
2021/12/17 13:32:01;;;;;;;;;28.00;25.50;;;;;12.12;57.95;103058.88;5012393;28;45572;-63
2021/12/17 13:34:30;;;;;;;;;27.50;25.00;;;;;12.06;57.87;103050.47;5013600;28;45360;-62
2021/12/17 13:37:01;;;;;;;;;29.50;24.75;;;;;12.09;58.58;103061.38;5013946;28;45390;-63
2021/12/17 13:39:33;;;;;;;;;28.75;26.50;;;;;12.10;58.22;103060.56;5026916;28;45012;-63
2021/12/17 13:42:01;;;;;;;;;35.50;27.00;;;;;12.02;58.58;103037.75;5008181;28;45406;-64
2021/12/17 13:44:35;;;;;;;;;30.50;27.75;;;;;12.15;59.09;103059.97;4999425;28;45487;-63
2021/12/17 13:47:24;;;;;;;;;26.00;22.25;;;;;12.17;58.09;103062.75;5014155;28;46495;-64
2021/12/17 13:49:53;;;;;;;;;19.00;13.75;;;;;12.21;58.56;103059.41;5019274;28;45288;-65
2021/12/17 13:52:23;;;;;;;;;26.75;22.00;;;;;12.16;57.98;103051.09;5026324;28;45365;-64
2021/12/17 13:54:51;;;;;;;;;29.75;27.25;;;;;12.22;57.88;103060.34;5023944;28;45252;-64
2021/12/17 13:57:19;;;;;;;;;28.25;23.50;;;;;12.21;58.65;103056.75;5019362;28;45696;-64
2021/12/17 13:59:46;;;;;;;;;50.00;39.00;;;;;12.18;58.08;103040.47;5020479;28;45541;-62
2021/12/17 14:02:15;;;;;;;;;29.00;27.25;;;;;12.17;58.59;103054.69;5021119;28;45673;-63
2021/12/17 14:04:42;;;;;;;;;27.50;21.75;;;;;12.15;58.37;103041.22;5041889;28;45391;-64
2021/12/17 14:07:09;;;;;;;;;22.75;19.50;;;;;12.06;58.46;103024.63;5025736;28;46070;-64
2021/12/17 14:09:36;;;;;;;;;23.25;21.25;;;;;12.20;58.18;103041.47;5027930;28;45403;-62